createdAt,value
2019-02-22T00:01:22.056Z,68.93
2019-02-22T00:04:06.772Z,65.20
2019-02-22T00:06:48.628Z,63.90
2019-02-22T00:09:29.656Z,71.30
2019-02-22T00:12:11.204Z,76.60
2019-02-22T00:14:52.357Z,68.03
2019-02-22T00:17:33.575Z,70.43
2019-02-22T00:20:14.952Z,74.07
2019-02-22T00:22:56.649Z,69.00
2019-02-22T00:25:37.567Z,66.33
2019-02-22T00:28:18.820Z,81.43
2019-02-22T00:31:00.121Z,73.97
2019-02-22T00:33:44.863Z,79.27
2019-02-22T00:39:09.635Z,78.50
2019-02-22T00:41:51.569Z,73.40
2019-02-22T00:44:33.362Z,73.00
2019-02-22T00:47:14.448Z,79.00
2019-02-22T00:49:55.751Z,81.33
2019-02-22T00:52:37.407Z,81.37
2019-02-22T00:55:18.615Z,94.57
2019-02-22T00:58:00.207Z,91.00
2019-02-22T01:00:41.455Z,99.03
2019-02-22T01:03:22.636Z,97.90
2019-02-22T01:06:05.683Z,88.47
2019-02-22T01:08:47.096Z,101.93
2019-02-22T01:11:28.436Z,99.23
2019-02-22T01:14:10.231Z,86.97
2019-02-22T01:16:51.602Z,98.70
2019-02-22T01:19:32.872Z,91.30
2019-02-22T01:22:13.945Z,89.73
2019-02-22T01:24:54.997Z,101.20
2019-02-22T01:27:36.022Z,109.63
2019-02-22T01:30:17.344Z,104.00
2019-02-22T01:32:58.444Z,103.47
2019-02-22T01:35:40.301Z,100.43
2019-02-22T01:38:21.593Z,106.10
2019-02-22T01:41:02.902Z,110.13
2019-02-22T01:43:44.786Z,109.03
2019-02-22T01:46:25.954Z,100.50
2019-02-22T01:49:07.071Z,96.53
2019-02-22T01:51:48.573Z,93.30
2019-02-22T01:54:29.656Z,97.90
2019-02-22T01:57:11.392Z,95.93
2019-02-22T01:59:52.764Z,98.30
2019-02-22T02:02:34.110Z,111.07
2019-02-22T02:05:15.663Z,104.73
2019-02-22T02:07:57.153Z,106.70
2019-02-22T02:10:38.626Z,107.37
2019-02-22T02:13:19.787Z,101.70
2019-02-22T02:16:01.191Z,107.87
2019-02-22T02:18:42.579Z,104.97
2019-02-22T02:21:23.750Z,101.40
2019-02-22T02:24:05.134Z,101.07
2019-02-22T02:26:46.579Z,112.90
2019-02-22T02:29:28.016Z,100.00
2019-02-22T02:32:09.458Z,104.03
2019-02-22T02:34:51.426Z,108.43
2019-02-22T02:37:33.167Z,109.73
2019-02-22T02:40:14.610Z,105.30
2019-02-22T02:42:55.985Z,107.87
2019-02-22T02:45:37.016Z,105.20
2019-02-22T02:48:18.373Z,106.33
2019-02-22T02:50:59.838Z,98.63
2019-02-22T02:53:40.993Z,112.20
2019-02-22T02:56:22.378Z,108.70
2019-02-22T02:59:03.916Z,120.27
2019-02-22T03:01:45.197Z,104.77
2019-02-22T03:07:52.100Z,110.57
2019-02-22T03:10:33.364Z,102.23
2019-02-22T03:13:14.423Z,103.57
2019-02-22T03:15:55.541Z,108.70
2019-02-22T03:18:36.967Z,103.97
2019-02-22T03:21:18.298Z,104.00
2019-02-22T03:23:59.608Z,108.83
2019-02-22T03:26:40.839Z,115.53
2019-02-22T03:29:22.409Z,103.10
2019-02-22T03:32:03.741Z,107.10
2019-02-22T03:34:45.640Z,104.00
2019-02-22T03:37:26.616Z,115.53
2019-02-22T03:40:07.738Z,113.67
2019-02-22T03:42:49.306Z,101.83
2019-02-22T03:45:30.895Z,112.93
2019-02-22T03:48:12.019Z,117.90
2019-02-22T03:50:53.333Z,102.90
2019-02-22T03:53:36.160Z,108.20
2019-02-22T03:56:21.038Z,97.30
2019-02-22T03:59:02.730Z,98.07
2019-02-22T04:01:43.844Z,104.50
2019-02-22T04:04:25.463Z,96.30
2019-02-22T04:07:06.970Z,104.03
2019-02-22T04:09:48.317Z,90.23
2019-02-22T04:12:29.478Z,99.70
2019-02-22T04:15:10.879Z,100.93
2019-02-22T04:17:52.676Z,101.73
2019-02-22T04:20:33.949Z,104.60
2019-02-22T04:26:40.470Z,91.37
2019-02-22T04:29:21.668Z,92.07
2019-02-22T04:32:03.088Z,91.77
2019-02-22T04:34:44.551Z,93.53
2019-02-22T04:37:26.504Z,85.13
2019-02-22T04:40:08.450Z,78.60
2019-02-22T04:42:49.575Z,84.50
2019-02-22T04:45:30.978Z,85.37
2019-02-22T04:48:12.140Z,94.37
2019-02-22T04:50:53.905Z,89.30
2019-02-22T04:53:35.417Z,91.97
2019-02-22T04:56:16.647Z,91.27
2019-02-22T04:58:57.723Z,97.37
2019-02-22T05:01:39.812Z,81.63
2019-02-22T05:04:20.863Z,94.60
2019-02-22T05:07:01.924Z,91.07
2019-02-22T05:09:42.962Z,88.90
2019-02-22T05:12:24.239Z,82.47
2019-02-22T05:15:12.473Z,82.90
2019-02-22T05:17:48.404Z,81.17
2019-02-22T05:20:29.533Z,82.73
2019-02-22T05:23:11.004Z,81.70
2019-02-22T05:29:31.469Z,78.87
2019-02-22T05:32:12.607Z,75.27
2019-02-22T05:34:54.014Z,60.67
2019-02-22T05:37:35.074Z,62.97
2019-02-22T05:40:16.164Z,66.80
2019-02-22T05:42:57.548Z,71.47
2019-02-22T05:45:39.116Z,68.30
2019-02-22T05:48:20.227Z,67.03
2019-02-22T05:51:01.592Z,74.03
2019-02-22T05:53:42.944Z,69.77
2019-02-22T05:56:24.091Z,69.57
2019-02-22T05:59:05.172Z,69.97
2019-02-22T06:01:46.620Z,77.37
2019-02-22T06:04:27.919Z,68.00
2019-02-22T06:07:09.337Z,71.77
2019-02-22T06:09:50.463Z,63.97
2019-02-22T06:12:34.844Z,65.70
2019-02-22T06:15:15.344Z,66.70
2019-02-22T06:17:56.498Z,57.90
2019-02-22T06:20:42.967Z,66.17
2019-02-22T06:23:24.524Z,65.80
2019-02-22T06:26:05.999Z,64.70
2019-02-22T06:28:47.529Z,63.70
2019-02-22T06:31:29.454Z,67.23
2019-02-22T06:34:10.900Z,70.27
2019-02-22T06:37:01.318Z,61.37
2019-02-22T06:39:35.525Z,61.87
2019-02-22T06:42:17.268Z,59.37
2019-02-22T06:44:58.562Z,61.70
2019-02-22T06:47:43.371Z,59.63
2019-02-22T06:50:33.310Z,66.50
2019-02-22T06:53:07.966Z,62.27
2019-02-22T06:55:49.222Z,56.70
2019-02-22T06:58:31.319Z,57.90
2019-02-22T07:01:12.321Z,62.47
2019-02-22T07:03:53.615Z,60.27
2019-02-22T07:06:34.728Z,63.20
2019-02-22T07:09:15.728Z,70.03
2019-02-22T07:11:58.784Z,66.13
2019-02-22T07:14:40.498Z,63.40
2019-02-22T07:17:21.678Z,59.73
2019-02-22T07:20:03.048Z,59.27
2019-02-22T07:22:44.203Z,57.07
2019-02-22T07:29:07.510Z,56.10
2019-02-22T07:31:49.426Z,63.93
2019-02-22T07:38:10.540Z,55.40
2019-02-22T07:40:52.143Z,54.50
2019-02-22T11:44:11.343Z,24.47
2019-02-22T11:46:58.834Z,21.80
2019-02-22T11:49:45.778Z,24.10
2019-02-22T11:52:33.113Z,24.87
2019-02-22T11:55:20.502Z,22.93
2019-02-22T11:58:07.469Z,27.40
2019-02-22T12:00:54.702Z,24.10
2019-02-22T12:03:42.032Z,23.27
2019-02-22T12:06:29.754Z,26.10
2019-02-22T12:09:16.989Z,23.07
2019-02-22T12:12:04.323Z,25.90
2019-02-22T12:14:52.416Z,24.60
2019-02-22T12:17:39.689Z,25.70
2019-02-22T12:20:27.230Z,25.80
2019-02-22T12:23:14.352Z,24.77
2019-02-22T12:26:01.829Z,24.87
2019-02-22T12:28:48.580Z,27.80
2019-02-22T12:32:21.134Z,22.40
2019-02-22T12:35:09.230Z,30.67
2019-02-22T12:37:56.697Z,27.77
2019-02-22T12:40:50.121Z,33.90
2019-02-22T12:43:37.364Z,32.37
2019-02-22T12:46:24.928Z,29.53
2019-02-22T12:49:12.716Z,28.20
2019-02-22T12:51:59.934Z,25.10
2019-02-22T12:54:47.533Z,25.73
2019-02-22T12:57:34.758Z,24.97
2019-02-22T13:00:22.208Z,25.50
2019-02-22T13:03:09.430Z,25.27
2019-02-22T13:05:56.440Z,25.73
2019-02-22T13:08:43.742Z,23.07
2019-02-22T13:11:31.075Z,30.30
2019-02-22T13:14:18.587Z,28.33
2019-02-22T13:17:06.250Z,30.63
2019-02-22T13:19:53.784Z,30.50
2019-02-22T13:22:41.252Z,27.93
2019-02-22T13:25:28.522Z,27.50
2019-02-22T13:28:16.220Z,31.33
2019-02-22T13:31:03.164Z,27.93
2019-02-22T13:33:50.705Z,27.50
2019-02-22T13:36:38.161Z,32.20
2019-02-22T13:39:25.299Z,35.90
2019-02-22T13:42:12.799Z,31.97
2019-02-22T13:44:59.922Z,31.97
2019-02-22T13:47:47.675Z,30.33
2019-02-22T13:50:35.177Z,28.33
2019-02-22T13:53:22.389Z,28.43
2019-02-22T13:56:09.916Z,35.30
2019-02-22T13:58:57.168Z,32.83
2019-02-22T14:01:44.138Z,39.33
2019-02-22T14:04:31.401Z,36.23
2019-02-22T14:07:18.466Z,31.80
2019-02-22T14:10:05.926Z,34.30
2019-02-22T14:12:52.710Z,34.10
2019-02-22T14:15:39.929Z,32.33
2019-02-22T14:18:27.144Z,36.20
2019-02-22T14:21:13.773Z,34.17
2019-02-22T14:24:01.156Z,35.90
2019-02-22T14:26:48.183Z,38.03
2019-02-22T14:29:35.114Z,34.60
2019-02-22T14:32:22.262Z,32.67
2019-02-22T14:35:09.194Z,36.63
2019-02-22T14:37:56.417Z,35.50
2019-02-22T14:40:43.466Z,31.43
2019-02-22T14:43:30.508Z,33.23
2019-02-22T14:46:25.640Z,29.47
2019-02-22T14:49:06.315Z,36.03
2019-02-22T14:51:53.610Z,32.23
2019-02-22T14:54:40.397Z,34.63
2019-02-22T14:57:27.445Z,34.80
2019-02-22T15:00:17.882Z,36.13
2019-02-22T15:03:04.919Z,35.30
2019-02-22T15:05:52.111Z,37.37
2019-02-22T15:08:39.650Z,39.20
2019-02-22T15:11:27.003Z,33.27
2019-02-22T15:14:13.818Z,38.00
2019-02-22T15:17:14.479Z,41.13
2019-02-22T15:20:01.658Z,41.17
2019-02-22T15:22:48.781Z,40.10
2019-02-22T15:25:35.712Z,41.33
2019-02-22T15:28:22.719Z,38.13
2019-02-22T15:31:10.063Z,38.97
2019-02-22T15:33:57.407Z,38.03
2019-02-22T15:36:44.757Z,40.37
2019-02-22T15:39:32.219Z,38.43
2019-02-22T15:42:19.239Z,45.20
2019-02-22T15:45:09.428Z,36.40
2019-02-22T15:47:56.661Z,37.80
2019-02-22T15:50:43.767Z,42.93
2019-02-22T15:53:30.944Z,40.83
2019-02-22T15:56:18.503Z,38.33
2019-02-22T15:59:05.727Z,42.47
2019-02-22T16:01:55.844Z,38.80
2019-02-22T16:04:45.121Z,39.37
2019-02-22T16:07:31.911Z,41.20
2019-02-22T16:10:18.695Z,38.97
2019-02-22T16:13:06.124Z,38.23
2019-02-22T16:15:53.205Z,37.53
2019-02-22T16:18:40.225Z,39.97
2019-02-22T16:21:27.430Z,35.13
2019-02-22T16:24:14.761Z,33.80
2019-02-22T16:27:01.904Z,38.60
2019-02-22T16:29:48.879Z,38.77
2019-02-22T16:32:36.147Z,34.00
2019-02-22T16:35:23.023Z,39.60
2019-02-22T16:38:10.042Z,34.97
2019-02-22T16:40:57.332Z,33.30
2019-02-22T16:43:44.372Z,34.30
2019-02-22T16:46:34.951Z,30.80
2019-02-22T16:49:20.269Z,33.87
2019-02-22T16:52:07.527Z,32.30
2019-02-22T16:54:54.686Z,37.40
2019-02-22T16:57:41.670Z,33.10
2019-02-22T17:00:28.935Z,36.30
2019-02-22T17:03:15.910Z,34.13
2019-02-22T17:06:02.863Z,39.97
2019-02-22T17:08:50.251Z,40.10
2019-02-22T17:11:37.461Z,29.43
2019-02-22T17:14:24.691Z,34.20
2019-02-22T17:17:11.933Z,37.37
2019-02-22T17:19:58.858Z,33.13
2019-02-22T17:22:45.784Z,32.13
2019-02-22T17:25:32.804Z,37.53
2019-02-22T17:28:20.211Z,38.03
2019-02-22T17:31:07.539Z,41.33
2019-02-22T17:33:54.466Z,40.03
2019-02-22T17:36:41.865Z,38.20
2019-02-22T17:39:28.864Z,41.00
2019-02-22T17:42:16.116Z,42.03
2019-02-22T17:45:03.443Z,34.23
2019-02-22T17:47:50.714Z,35.87
2019-02-22T17:50:38.098Z,41.53
2019-02-22T17:53:25.332Z,35.33
2019-02-22T17:56:12.793Z,37.50
2019-02-22T17:58:59.700Z,36.73
2019-02-22T18:01:46.696Z,36.33
2019-02-22T18:04:34.138Z,39.80
2019-02-22T18:07:21.151Z,33.00
2019-02-22T18:10:09.898Z,28.83
2019-02-22T18:12:56.940Z,30.93
2019-02-22T18:15:44.047Z,30.10
2019-02-22T18:18:31.019Z,26.43
2019-02-22T18:21:17.772Z,26.07
2019-02-22T18:24:05.169Z,32.80
2019-02-22T18:26:52.521Z,23.97
2019-02-22T18:29:39.734Z,25.13
2019-02-22T18:32:26.785Z,30.47
2019-02-22T18:35:13.715Z,26.50
2019-02-22T18:38:00.416Z,26.20
2019-02-22T18:40:48.146Z,24.20
2019-02-22T18:43:34.940Z,20.50
2019-02-22T18:46:22.178Z,22.77
2019-02-22T18:49:09.227Z,25.17
2019-02-22T18:51:56.300Z,20.90
2019-02-22T18:54:43.333Z,20.30
2019-02-22T18:57:30.421Z,22.20
2019-02-22T19:00:20.204Z,23.43
2019-02-22T19:03:07.560Z,21.73
2019-02-22T19:05:54.867Z,18.80
2019-02-22T19:08:42.221Z,23.10
2019-02-22T19:11:11.924Z,21.60
2019-02-22T19:13:41.286Z,19.27
2019-02-22T19:16:10.678Z,19.07
2019-02-22T19:18:40.200Z,17.90
2019-02-22T19:21:09.473Z,23.60
2019-02-22T19:23:38.819Z,18.37
2019-02-22T19:26:08.165Z,17.60
2019-02-22T19:28:37.552Z,21.70
2019-02-22T19:31:06.848Z,20.13
2019-02-22T19:33:36.114Z,16.67
2019-02-22T19:36:05.379Z,20.07
2019-02-22T19:38:34.660Z,17.57
2019-02-22T19:41:04.111Z,18.57
2019-02-22T19:43:33.428Z,20.73
2019-02-22T19:46:02.821Z,19.70
2019-02-22T19:48:32.248Z,19.40
2019-02-22T19:51:01.758Z,20.20
2019-02-22T19:53:30.989Z,20.00
2019-02-22T19:56:00.358Z,21.60
2019-02-22T19:58:29.690Z,21.47
2019-02-22T20:00:58.957Z,20.60
2019-02-22T20:03:28.296Z,21.20
2019-02-22T20:05:57.609Z,26.80
2019-02-22T20:08:26.904Z,22.73
2019-02-22T20:10:56.245Z,19.37
2019-02-22T20:13:25.566Z,20.13
2019-02-22T20:15:55.009Z,23.00
2019-02-22T20:18:24.348Z,23.20
2019-02-22T20:20:53.620Z,22.70
2019-02-22T20:23:22.974Z,22.60
2019-02-22T20:26:11.662Z,25.43
2019-02-22T20:28:41.032Z,26.13
2019-02-22T20:31:19.868Z,29.20
2019-02-22T20:33:41.521Z,27.87
2019-02-22T20:36:10.811Z,27.20
2019-02-22T20:38:40.294Z,28.63
2019-02-22T20:41:09.655Z,29.27
2019-02-22T20:43:39.068Z,27.63
2019-02-22T20:46:08.566Z,25.03
2019-02-22T20:48:38.023Z,23.13
2019-02-22T20:51:07.458Z,26.10
2019-02-22T20:53:36.859Z,26.43
2019-02-22T20:56:06.199Z,32.00
2019-02-22T20:58:35.653Z,28.13
2019-02-22T21:01:14.432Z,27.30
2019-02-22T21:03:36.148Z,31.30
2019-02-22T21:06:05.661Z,29.00
2019-02-22T21:08:34.992Z,31.00
2019-02-22T21:11:04.376Z,30.90
2019-02-22T21:13:33.678Z,29.80
2019-02-22T21:16:04.622Z,28.07
2019-02-22T21:18:34.163Z,29.83
2019-02-22T21:21:03.603Z,28.17
2019-02-22T21:23:32.949Z,27.20
2019-02-22T21:26:04.298Z,30.07
2019-02-22T21:28:33.414Z,31.73
2019-02-22T21:31:02.684Z,32.10
2019-02-22T21:33:32.013Z,36.50
2019-02-22T21:36:01.300Z,30.40
2019-02-22T21:38:30.594Z,30.03
2019-02-22T21:40:59.941Z,30.30
2019-02-22T21:43:29.264Z,29.67
2019-02-22T21:45:58.569Z,34.63
2019-02-22T21:48:32.556Z,32.07
2019-02-22T21:51:06.832Z,29.43
2019-02-22T21:53:41.752Z,30.00
2019-02-22T21:56:11.029Z,33.83
2019-02-22T21:58:40.330Z,43.33
2019-02-22T22:01:09.682Z,41.60
2019-02-22T22:03:38.919Z,31.33
2019-02-22T22:06:08.248Z,34.50
2019-02-22T22:08:37.599Z,30.20
2019-02-22T22:11:06.902Z,33.87
2019-02-22T22:13:36.171Z,30.63
2019-02-22T22:16:05.423Z,31.77
2019-02-22T22:18:38.812Z,25.60
2019-02-22T22:21:05.710Z,32.70
2019-02-22T22:23:35.052Z,31.63
2019-02-22T22:26:04.320Z,35.60
2019-02-22T22:28:33.585Z,30.27
2019-02-22T22:31:02.875Z,30.50
2019-02-22T22:33:32.116Z,34.77
2019-02-22T22:36:01.478Z,30.50
2019-02-22T22:38:50.079Z,31.00
2019-02-22T22:41:19.350Z,33.23
2019-02-22T22:43:48.607Z,31.60
2019-02-22T22:46:18.000Z,30.40
2019-02-22T22:48:50.340Z,32.03
2019-02-22T22:51:18.264Z,30.53
2019-02-22T22:53:47.532Z,32.33
2019-02-22T22:56:18.200Z,32.43
2019-02-22T22:58:48.010Z,32.53
2019-02-22T23:01:37.232Z,31.57
2019-02-22T23:04:06.622Z,32.67
2019-02-22T23:06:35.881Z,30.30
2019-02-22T23:09:08.056Z,31.93
2019-02-22T23:11:38.070Z,28.10
2019-02-22T23:14:07.302Z,26.80
2019-02-22T23:16:36.635Z,32.47
2019-02-22T23:19:26.700Z,30.83
2019-02-22T23:21:56.000Z,31.50
2019-02-22T23:24:25.331Z,28.33
2019-02-22T23:26:54.656Z,36.70
2019-02-22T23:29:23.942Z,27.40
2019-02-22T23:31:53.197Z,27.47
2019-02-22T23:34:41.797Z,27.53
2019-02-22T23:37:11.049Z,28.00
2019-02-22T23:39:40.298Z,27.13
2019-02-22T23:42:09.596Z,27.63
2019-02-22T23:44:58.222Z,26.43
2019-02-22T23:47:27.523Z,24.47
2019-02-22T23:49:56.786Z,26.70
2019-02-22T23:52:26.032Z,21.57
2019-02-22T23:54:55.278Z,24.67
2019-02-22T23:57:24.628Z,25.60
2019-02-22T23:59:53.862Z,25.57
